createdAt,value
2022-12-13T16:56:21.813Z,-5.90
2022-12-13T16:58:54.333Z,-6.02
2022-12-13T17:01:28.256Z,-6.06
2022-12-13T17:04:03.163Z,-6.10
2022-12-13T17:06:38.367Z,-6.13
2022-12-13T17:09:10.536Z,-6.19
2022-12-13T17:11:42.739Z,-6.33
2022-12-13T17:14:14.845Z,-6.42
2022-12-13T17:16:47.512Z,-6.50
2022-12-13T17:19:19.930Z,-6.54
2022-12-13T17:21:53.924Z,-6.57
2022-12-13T17:24:26.214Z,-6.57
2022-12-13T17:26:58.300Z,-6.59
2022-12-13T17:29:32.105Z,-6.59
2022-12-13T17:32:04.502Z,-6.57
2022-12-13T17:34:38.580Z,-6.58
2022-12-13T17:37:11.006Z,-6.59
2022-12-13T17:39:43.466Z,-6.68
2022-12-13T17:42:18.375Z,-6.73
2022-12-13T17:44:50.660Z,-6.76
2022-12-13T17:47:23.229Z,-6.82
2022-12-13T17:49:55.393Z,-6.82
2022-12-13T17:52:27.722Z,-6.84
2022-12-13T17:55:01.082Z,-6.88
2022-12-13T17:57:34.209Z,-6.91
2022-12-13T18:00:08.941Z,-6.97
2022-12-13T18:02:55.640Z,-7.06
2022-12-13T18:05:28.203Z,-7.13
2022-12-13T18:08:00.524Z,-7.17
2022-12-13T18:10:32.853Z,-7.18
2022-12-13T18:13:05.639Z,-7.17
2022-12-13T18:15:38.664Z,-7.21
2022-12-13T18:18:14.116Z,-7.26
2022-12-13T18:20:47.071Z,-7.25
2022-12-13T18:23:19.977Z,-7.23
2022-12-13T18:25:52.042Z,-7.23
2022-12-13T18:28:22.813Z,-7.24
2022-12-13T18:30:57.206Z,-7.27
2022-12-13T18:33:29.728Z,-7.28
2022-12-13T18:36:02.624Z,-7.27
2022-12-13T18:38:37.066Z,-7.29
2022-12-13T18:41:11.698Z,-7.36
2022-12-13T18:43:45.264Z,-7.43
2022-12-13T18:46:18.618Z,-7.44
2022-12-13T18:48:51.270Z,-7.48
2022-12-13T18:51:24.377Z,-7.48
2022-12-13T18:53:59.451Z,-7.48
2022-12-13T18:56:31.877Z,-7.49
2022-12-13T18:59:04.764Z,-7.54
2022-12-13T19:01:38.459Z,-7.60
2022-12-13T19:04:11.069Z,-7.66
2022-12-13T19:06:43.658Z,-7.67
2022-12-13T19:09:19.481Z,-7.67
2022-12-13T19:11:51.989Z,-7.70
2022-12-13T19:14:27.183Z,-7.73
2022-12-13T19:17:00.026Z,-7.72
2022-12-13T19:19:33.016Z,-7.73
2022-12-13T19:22:05.663Z,-7.70
2022-12-13T19:24:38.275Z,-7.68
2022-12-13T19:27:10.669Z,-7.64
2022-12-13T19:29:42.775Z,-7.61
2022-12-13T19:32:15.022Z,-7.58
2022-12-13T19:34:47.874Z,-7.56
2022-12-13T19:37:20.063Z,-7.55
2022-12-13T19:39:52.180Z,-7.53
2022-12-13T19:42:24.421Z,-7.48
2022-12-13T19:44:56.472Z,-7.43
2022-12-13T19:47:29.000Z,-7.41
2022-12-13T19:49:59.477Z,-7.40
2022-12-13T19:52:31.776Z,-7.40
2022-12-13T19:55:04.662Z,-7.40
2022-12-13T19:57:37.128Z,-7.44
2022-12-13T20:03:02.024Z,-7.49
2022-12-13T20:05:35.973Z,-7.52
2022-12-13T20:08:09.068Z,-7.58
2022-12-13T20:10:41.624Z,-7.65
2022-12-13T20:13:14.157Z,-7.69
2022-12-13T20:15:50.827Z,-7.70
2022-12-13T20:18:23.398Z,-7.68
2022-12-13T20:21:12.425Z,-7.68
2022-12-13T20:23:49.208Z,-7.72
2022-12-13T20:26:24.931Z,-7.76
2022-12-13T20:28:58.128Z,-7.83
2022-12-13T20:31:32.945Z,-7.91
2022-12-13T20:34:10.415Z,-7.96
2022-12-13T20:36:43.557Z,-7.98
2022-12-13T20:39:16.061Z,-7.99
2022-12-13T20:41:48.795Z,-7.99
2022-12-13T20:44:20.967Z,-7.97
2022-12-13T20:46:53.871Z,-7.94
2022-12-13T20:49:26.952Z,-7.86
2022-12-13T20:51:59.604Z,-7.80
2022-12-13T20:54:32.305Z,-7.81
2022-12-13T20:57:05.058Z,-7.82
2022-12-13T20:59:37.856Z,-7.80
2022-12-13T21:02:12.456Z,-7.80
2022-12-13T21:04:46.217Z,-7.77
2022-12-13T21:07:38.613Z,-7.72
2022-12-13T21:10:13.853Z,-7.72
2022-12-13T21:12:45.850Z,-7.75
2022-12-13T21:15:16.714Z,-7.77
2022-12-13T21:17:48.698Z,-7.82
2022-12-13T21:20:19.313Z,-7.89
2022-12-13T21:22:51.387Z,-7.97
2022-12-13T21:25:22.188Z,-7.98
2022-12-13T21:27:55.488Z,-8.00
2022-12-13T21:30:27.705Z,-8.03
2022-12-13T21:32:58.185Z,-8.09
2022-12-13T21:35:31.213Z,-8.13
2022-12-13T21:38:05.465Z,-8.14
2022-12-13T21:40:38.314Z,-8.17
2022-12-13T21:43:10.476Z,-8.15
2022-12-13T21:45:42.811Z,-8.16
2022-12-13T21:48:15.479Z,-8.19
2022-12-13T21:50:52.252Z,-8.21
2022-12-13T21:53:24.635Z,-8.22
2022-12-13T21:56:17.152Z,-8.24
2022-12-13T21:59:07.344Z,-8.24
2022-12-13T22:02:02.078Z,-8.23
2022-12-13T22:04:35.430Z,-8.22
2022-12-13T22:07:09.751Z,-8.21
2022-12-13T22:09:42.337Z,-8.24
2022-12-13T22:12:22.068Z,-8.27
2022-12-13T22:14:54.616Z,-8.29
2022-12-13T22:17:34.688Z,-8.27
2022-12-13T22:20:10.997Z,-8.29
2022-12-13T22:22:45.386Z,-8.36
2022-12-13T22:25:18.861Z,-8.38
2022-12-13T22:27:51.037Z,-8.38
2022-12-13T22:30:23.161Z,-8.39
2022-12-13T22:32:55.680Z,-8.40
2022-12-13T22:35:30.257Z,-8.45
2022-12-13T22:38:04.118Z,-8.51
2022-12-13T22:40:39.746Z,-8.53
2022-12-13T22:43:14.903Z,-8.54
2022-12-13T22:45:51.190Z,-8.58
2022-12-13T22:48:25.380Z,-8.62
2022-12-13T22:51:02.108Z,-8.63
2022-12-13T22:53:34.318Z,-8.64
2022-12-13T22:56:10.432Z,-8.67
2022-12-13T22:58:43.471Z,-8.75
2022-12-13T23:01:17.519Z,-8.82
2022-12-13T23:03:50.062Z,-8.88
2022-12-13T23:06:24.396Z,-8.90
2022-12-13T23:08:58.685Z,-8.91
2022-12-13T23:11:49.170Z,-8.96
2022-12-13T23:14:26.915Z,-9.04
2022-12-13T23:16:59.592Z,-9.07
2022-12-13T23:19:49.620Z,-9.08
2022-12-13T23:22:25.266Z,-9.06
2022-12-13T23:24:57.325Z,-9.07
2022-12-13T23:27:29.460Z,-9.08
2022-12-13T23:29:59.904Z,-9.07
2022-12-13T23:32:32.072Z,-9.15
2022-12-13T23:35:08.391Z,-9.26
2022-12-13T23:37:40.795Z,-9.32
2022-12-13T23:40:14.567Z,-9.33
2022-12-13T23:42:46.664Z,-9.33
2022-12-13T23:45:18.699Z,-9.33
2022-12-13T23:47:51.207Z,-9.38
2022-12-13T23:50:23.981Z,-9.40
2022-12-13T23:52:56.481Z,-9.41
2022-12-13T23:55:28.631Z,-9.44
2022-12-13T23:58:00.695Z,-9.43
